Time;durP1;ratioP1;P1;durP2;ratioP2;P2;SDS_P1;SDS_P2;PMS_P1;PMS_P2;Temp;Humidity;BMP_temperature;BMP_pressure;BME280_temperature;BME280_humidity;BME280_pressure;Samples;Min_cycle;Max_cycle;Signal;HPM_P1;HPM_P2
2021/01/27 00:00:50;;;;;;;12.40;7.03;;;0.10;99.70;;;;;;4953654;29;20491;-66
2021/01/27 00:03:18;;;;;;;14.57;7.20;;;0.00;99.70;;;;;;4953425;28;20495;-66
2021/01/27 00:05:46;;;;;;;15.23;7.70;;;0.00;99.70;;;;;;4953736;29;20870;-66
2021/01/27 00:08:13;;;;;;;13.13;7.23;;;0.00;99.70;;;;;;4953178;29;20950;-67
2021/01/27 00:10:39;;;;;;;14.90;7.87;;;-0.10;99.70;;;;;;4953475;29;20444;-66
2021/01/27 00:13:07;;;;;;;15.50;7.37;;;-0.10;99.70;;;;;;4953232;28;20468;-66
2021/01/27 00:15:36;;;;;;;16.00;7.60;;;0.00;99.70;;;;;;4953469;29;20452;-66
2021/01/27 00:18:03;;;;;;;14.33;8.00;;;0.00;99.70;;;;;;4952874;29;20479;-66
2021/01/27 00:20:31;;;;;;;14.40;7.00;;;0.10;99.70;;;;;;4953257;29;20480;-66
2021/01/27 00:22:58;;;;;;;13.50;7.23;;;0.10;99.70;;;;;;4953134;28;20472;-66
2021/01/27 00:25:27;;;;;;;16.07;7.80;;;0.10;99.70;;;;;;4952842;29;20448;-66
2021/01/27 00:27:54;;;;;;;13.20;7.17;;;0.10;99.70;;;;;;4952774;29;20821;-66
2021/01/27 00:30:22;;;;;;;14.63;7.13;;;0.10;99.70;;;;;;4953155;29;20948;-67
2021/01/27 00:32:49;;;;;;;13.83;7.30;;;0.20;99.70;;;;;;4952947;28;20808;-66
2021/01/27 00:35:17;;;;;;;13.40;7.53;;;0.20;99.70;;;;;;4952967;28;20484;-66
2021/01/27 00:37:44;;;;;;;14.13;7.43;;;0.20;99.70;;;;;;4952525;29;20455;-66
2021/01/27 00:40:12;;;;;;;14.80;7.13;;;0.30;99.70;;;;;;4952740;29;20496;-66
2021/01/27 00:42:38;;;;;;;12.73;6.47;;;0.40;99.70;;;;;;4952736;28;20839;-66
2021/01/27 00:45:06;;;;;;;14.37;7.17;;;0.30;99.70;;;;;;4952786;29;20456;-66
2021/01/27 00:47:33;;;;;;;15.37;8.10;;;0.30;99.70;;;;;;4951763;28;20452;-66
2021/01/27 00:49:59;;;;;;;16.17;7.73;;;0.20;99.70;;;;;;4952781;29;20440;-66
2021/01/27 00:52:25;;;;;;;18.80;8.30;;;0.20;99.70;;;;;;4952530;28;20470;-66
2021/01/27 00:54:52;;;;;;;14.77;7.83;;;0.20;99.70;;;;;;4952704;29;20448;-66
2021/01/27 00:57:19;;;;;;;20.27;7.83;;;0.20;99.70;;;;;;4952341;29;20761;-66
2021/01/27 00:59:45;;;;;;;15.97;7.40;;;0.20;99.70;;;;;;4952439;29;20484;-66
2021/01/27 01:02:11;;;;;;;16.40;7.13;;;0.20;99.70;;;;;;4952565;29;20456;-66
2021/01/27 01:04:37;;;;;;;16.10;7.70;;;0.20;99.70;;;;;;4952157;28;20897;-66
2021/01/27 01:07:03;;;;;;;14.93;7.10;;;0.10;99.70;;;;;;4952182;29;20463;-66
2021/01/27 01:09:30;;;;;;;17.53;8.40;;;0.10;99.70;;;;;;4952465;29;20942;-66
2021/01/27 01:11:57;;;;;;;15.17;7.37;;;0.00;99.70;;;;;;4952320;29;20988;-66
2021/01/27 01:14:25;;;;;;;13.20;6.90;;;0.00;99.70;;;;;;4952166;28;20472;-66
2021/01/27 01:16:51;;;;;;;20.10;8.40;;;0.00;99.70;;;;;;4952219;29;20448;-66
2021/01/27 01:19:18;;;;;;;16.83;8.10;;;0.00;99.70;;;;;;4952198;29;20502;-66
2021/01/27 01:21:44;;;;;;;13.00;6.87;;;0.10;99.70;;;;;;4952206;29;20962;-66
2021/01/27 01:24:11;;;;;;;15.40;7.83;;;0.10;99.70;;;;;;4951241;28;20460;-66
2021/01/27 01:26:37;;;;;;;14.10;6.87;;;0.10;99.70;;;;;;4952148;28;20444;-66
2021/01/27 01:29:04;;;;;;;13.93;7.17;;;0.10;99.70;;;;;;4951783;29;20869;-66
2021/01/27 01:31:30;;;;;;;14.20;7.33;;;0.10;99.70;;;;;;4952147;29;20440;-67
2021/01/27 01:33:56;;;;;;;14.27;7.10;;;0.10;99.70;;;;;;4951876;28;20486;-66
2021/01/27 01:36:23;;;;;;;14.27;6.93;;;0.10;99.70;;;;;;4952139;29;20452;-66
2021/01/27 01:38:49;;;;;;;15.60;6.77;;;0.10;99.70;;;;;;4951690;29;20452;-66
2021/01/27 01:41:15;;;;;;;12.33;6.60;;;0.10;99.70;;;;;;4952045;29;20569;-66
2021/01/27 01:43:42;;;;;;;16.10;7.30;;;0.20;99.70;;;;;;4952140;28;20468;-66
2021/01/27 01:46:14;;;;;;;15.57;7.37;;;0.10;99.70;;;;;;4952055;29;20448;-66
2021/01/27 01:48:45;;;;;;;13.10;7.00;;;0.10;99.70;;;;;;4951581;29;20511;-66
2021/01/27 01:51:18;;;;;;;15.93;7.33;;;0.20;99.70;;;;;;4952028;29;20441;-66
2021/01/27 01:53:48;;;;;;;10.53;6.37;;;0.10;99.70;;;;;;4951783;28;20484;-66
2021/01/27 01:56:17;;;;;;;12.30;7.20;;;0.10;99.70;;;;;;4951921;29;20965;-66
2021/01/27 01:58:44;;;;;;;13.23;7.07;;;0.10;99.70;;;;;;4951899;28;20507;-66
2021/01/27 02:01:12;;;;;;;14.10;7.20;;;0.00;99.70;;;;;;4955993;29;20550;-66
2021/01/27 02:03:40;;;;;;;17.23;7.57;;;0.00;99.70;;;;;;4955525;28;21004;-66
2021/01/27 02:06:08;;;;;;;14.87;7.03;;;0.00;99.70;;;;;;4955820;29;20448;-67
2021/01/27 02:08:37;;;;;;;13.17;6.80;;;0.00;99.70;;;;;;4955277;29;20945;-66
2021/01/27 02:11:03;;;;;;;14.73;6.80;;;0.00;99.70;;;;;;4955714;29;20954;-66
2021/01/27 02:13:47;;;;;;;11.60;6.50;;;-0.10;99.70;;;;;;4955566;28;20471;-66
2021/01/27 02:16:25;;;;;;;12.33;6.47;;;-0.10;99.70;;;;;;4955681;29;20863;-66
2021/01/27 02:19:10;;;;;;;14.00;6.20;;;0.00;99.70;;;;;;4955069;28;20451;-66
2021/01/27 02:21:59;;;;;;;11.77;6.50;;;0.10;99.70;;;;;;4955313;29;20484;-66
2021/01/27 02:24:44;;;;;;;12.90;6.87;;;0.10;99.70;;;;;;4953478;28;20475;-66
2021/01/27 02:27:13;;;;;;;18.50;6.97;;;0.00;99.70;;;;;;4955103;29;20448;-66
2021/01/27 02:30:02;;;;;;;15.00;6.93;;;-0.10;99.70;;;;;;4955207;29;20499;-66
2021/01/27 02:32:53;;;;;;;18.37;7.23;;;0.10;99.70;;;;;;4955209;28;20456;-66
2021/01/27 02:35:26;;;;;;;13.40;6.70;;;0.10;99.70;;;;;;4955174;29;20498;-67
2021/01/27 02:37:59;;;;;;;18.47;7.67;;;0.00;99.70;;;;;;4954906;29;20455;-66
2021/01/27 02:40:30;;;;;;;16.40;7.30;;;0.00;99.70;;;;;;4955076;29;20490;-66
2021/01/27 02:43:05;;;;;;;15.17;7.50;;;-0.10;99.70;;;;;;4955180;28;20479;-66
2021/01/27 02:45:34;;;;;;;17.37;8.30;;;-0.10;99.70;;;;;;4955094;29;20580;-66
2021/01/27 02:48:03;;;;;;;13.30;6.77;;;-0.10;99.70;;;;;;4954543;29;20452;-66
2021/01/27 02:50:35;;;;;;;16.47;7.97;;;-0.20;99.70;;;;;;4954903;29;20635;-66
2021/01/27 02:53:07;;;;;;;15.33;7.40;;;-0.20;99.70;;;;;;4954954;28;20480;-66
2021/01/27 02:55:40;;;;;;;14.03;7.70;;;-0.20;99.70;;;;;;4954785;29;20456;-66
2021/01/27 02:58:14;;;;;;;15.17;6.73;;;-0.30;99.70;;;;;;4954451;29;20455;-66
2021/01/27 03:00:44;;;;;;;15.37;6.93;;;-0.30;99.70;;;;;;4954731;29;20480;-66
2021/01/27 03:03:16;;;;;;;13.53;6.73;;;-0.30;99.70;;;;;;4954621;28;20476;-66
2021/01/27 03:05:47;;;;;;;12.70;7.10;;;-0.20;99.70;;;;;;4954680;28;20857;-66
2021/01/27 03:08:17;;;;;;;11.70;6.17;;;-0.30;99.70;;;;;;4955694;29;21258;-66
2021/01/27 03:10:49;;;;;;;11.50;6.30;;;-0.40;99.70;;;;;;4954043;28;20448;-66
2021/01/27 03:13:15;;;;;;;13.60;6.50;;;-0.40;99.70;;;;;;4954700;28;20891;-66
2021/01/27 03:15:41;;;;;;;14.00;6.63;;;-0.40;99.70;;;;;;4954645;29;20459;-66
2021/01/27 03:18:16;;;;;;;12.07;6.13;;;-0.30;99.70;;;;;;4954178;29;20503;-66
2021/01/27 03:20:44;;;;;;;13.80;6.33;;;-0.30;99.70;;;;;;4954425;28;20490;-66
2021/01/27 03:23:16;;;;;;;13.20;6.23;;;-0.40;99.70;;;;;;4954243;28;20475;-66
2021/01/27 03:25:48;;;;;;;11.80;6.50;;;-0.20;99.70;;;;;;4953660;29;20460;-66
2021/01/27 03:28:20;;;;;;;11.53;6.13;;;-0.20;99.70;;;;;;4954039;29;20448;-66
2021/01/27 03:30:46;;;;;;;12.00;6.73;;;-0.20;99.70;;;;;;4954296;29;20452;-66
2021/01/27 03:33:16;;;;;;;10.97;6.53;;;-0.30;99.70;;;;;;4954172;28;20468;-66
2021/01/27 03:35:48;;;;;;;12.20;6.57;;;-0.30;99.70;;;;;;4954172;29;20455;-66
2021/01/27 03:38:20;;;;;;;13.97;6.50;;;-0.30;99.70;;;;;;4953843;29;20455;-66
2021/01/27 03:40:49;;;;;;;13.80;7.23;;;-0.20;99.70;;;;;;4954069;29;20490;-66
2021/01/27 03:43:20;;;;;;;16.00;7.50;;;-0.20;99.70;;;;;;4954069;28;20981;-66
2021/01/27 03:45:49;;;;;;;12.77;6.83;;;-0.20;99.70;;;;;;4954109;29;20455;-66
2021/01/27 03:48:20;;;;;;;14.23;7.30;;;-0.20;99.70;;;;;;4953607;29;20978;-66
2021/01/27 03:50:54;;;;;;;12.67;6.47;;;-0.20;99.70;;;;;;4953933;29;20825;-66
2021/01/27 03:53:20;;;;;;;12.30;6.30;;;-0.20;99.70;;;;;;4953810;28;20472;-66
2021/01/27 03:55:53;;;;;;;13.77;6.67;;;-0.10;99.70;;;;;;4953706;29;20444;-66
2021/01/27 03:58:23;;;;;;;15.13;6.87;;;-0.10;99.70;;;;;;4953415;29;20944;-66
2021/01/27 04:00:50;;;;;;;11.07;6.47;;;0.00;99.70;;;;;;4953822;29;20495;-66
2021/01/27 04:03:19;;;;;;;19.03;7.83;;;-0.20;99.70;;;;;;4953618;28;20488;-66
2021/01/27 04:05:45;;;;;;;16.10;7.57;;;0.00;99.70;;;;;;4953594;29;20456;-66
2021/01/27 04:08:13;;;;;;;12.30;6.60;;;-0.10;99.70;;;;;;4953461;29;20456;-66
2021/01/27 04:10:39;;;;;;;12.83;6.93;;;0.00;99.70;;;;;;4953417;29;20970;-66
2021/01/27 04:13:06;;;;;;;11.83;6.60;;;-0.10;99.70;;;;;;4953511;28;20465;-66
2021/01/27 04:15:33;;;;;;;16.80;7.30;;;-0.20;99.70;;;;;;4953600;29;20452;-66
2021/01/27 04:17:59;;;;;;;17.23;7.43;;;-0.10;99.70;;;;;;4953025;29;20455;-66
2021/01/27 04:20:26;;;;;;;16.80;7.77;;;0.00;99.70;;;;;;4953342;29;20480;-66
2021/01/27 04:22:52;;;;;;;16.00;7.90;;;-0.10;99.70;;;;;;4952406;28;20589;-66
2021/01/27 04:25:20;;;;;;;12.80;6.20;;;0.00;99.70;;;;;;4952877;29;20868;-66
2021/01/27 04:27:46;;;;;;;13.00;7.07;;;0.00;99.70;;;;;;4953080;29;20459;-66
2021/01/27 04:30:15;;;;;;;14.90;7.53;;;0.10;99.70;;;;;;4953288;29;20444;-66
2021/01/27 04:32:41;;;;;;;16.00;7.90;;;-0.10;99.70;;;;;;4953015;28;20949;-66
2021/01/27 04:35:09;;;;;;;16.10;8.30;;;0.00;99.70;;;;;;4953091;29;20451;-66
2021/01/27 04:37:35;;;;;;;15.53;8.00;;;-0.20;99.70;;;;;;4952783;28;20444;-66
2021/01/27 04:40:03;;;;;;;14.63;7.37;;;-0.20;99.70;;;;;;4953003;29;20488;-66
2021/01/27 04:42:30;;;;;;;16.80;7.60;;;-0.20;99.70;;;;;;4952885;28;20448;-66
2021/01/27 04:44:58;;;;;;;16.63;7.70;;;-0.20;99.70;;;;;;4953051;29;20452;-66
2021/01/27 04:47:29;;;;;;;16.43;7.43;;;-0.20;99.70;;;;;;4952526;29;20440;-66
2021/01/27 04:50:00;;;;;;;15.33;7.53;;;-0.20;99.70;;;;;;4952984;28;20488;-66
2021/01/27 04:52:49;;;;;;;15.83;6.83;;;-0.20;99.70;;;;;;4952837;28;20451;-65
2021/01/27 04:55:29;;;;;;;15.27;7.33;;;-0.10;99.70;;;;;;4952993;29;20507;-66
2021/01/27 04:58:08;;;;;;;15.30;7.40;;;-0.20;99.70;;;;;;4952304;29;20452;-66
2021/01/27 05:00:51;;;;;;;14.97;7.97;;;-0.10;99.70;;;;;;4952646;29;20479;-66
2021/01/27 05:04:02;;;;;;;14.93;7.60;;;-0.10;99.70;;;;;;4952442;28;20508;-66
2021/01/27 05:06:31;;;;;;;16.33;7.37;;;-0.10;99.70;;;;;;4930997;29;20449;-66
2021/01/27 05:09:06;;;;;;;13.30;7.87;;;0.00;99.70;;;;;;4947284;29;20468;-66
2021/01/27 05:11:32;;;;;;;15.63;7.67;;;-0.20;99.70;;;;;;4952485;29;20440;-66
2021/01/27 05:14:02;;;;;;;17.67;7.73;;;-0.10;99.70;;;;;;4952339;28;20472;-67
2021/01/27 05:16:30;;;;;;;15.30;7.80;;;0.00;99.70;;;;;;4952242;29;20946;-66
2021/01/27 05:18:59;;;;;;;14.30;7.50;;;-0.10;99.70;;;;;;4951913;29;20452;-66
2021/01/27 05:21:27;;;;;;;24.40;10.87;;;-0.20;99.70;;;;;;4952238;29;20487;-66
2021/01/27 05:23:54;;;;;;;19.47;9.57;;;-0.20;99.70;;;;;;4951527;28;20961;-66
2021/01/27 05:26:24;;;;;;;15.33;7.80;;;-0.20;99.70;;;;;;4952203;29;20823;-66
2021/01/27 05:28:59;;;;;;;16.20;7.67;;;-0.10;99.70;;;;;;4951789;28;20464;-66
2021/01/27 05:32:01;;;;;;;15.03;7.70;;;0.00;99.70;;;;;;4952319;29;20502;-66
2021/01/27 05:34:31;;;;;;;14.73;7.33;;;0.00;99.70;;;;;;4952136;28;20468;-66
2021/01/27 05:36:58;;;;;;;12.87;7.63;;;-0.10;99.70;;;;;;4951779;28;20444;-66
2021/01/27 05:39:28;;;;;;;14.47;7.30;;;-0.10;99.70;;;;;;4952215;29;20459;-66
2021/01/27 05:42:06;;;;;;;14.47;7.53;;;0.00;99.70;;;;;;4952108;28;20973;-66
2021/01/27 05:44:33;;;;;;;14.70;7.67;;;0.00;99.70;;;;;;4952965;28;20497;-65
2021/01/27 05:47:34;;;;;;;12.20;6.93;;;0.00;99.70;;;;;;4951570;29;20451;-64
2021/01/27 05:50:15;;;;;;;13.80;7.57;;;0.00;99.70;;;;;;4952105;28;20448;-64
2021/01/27 05:52:42;;;;;;;12.10;6.43;;;0.00;99.70;;;;;;4951896;28;20503;-64
2021/01/27 05:55:09;;;;;;;23.90;9.60;;;0.00;99.70;;;;;;4952010;29;20964;-65
2021/01/27 05:57:36;;;;;;;19.13;8.67;;;0.10;99.70;;;;;;4951556;28;20448;-64
2021/01/27 06:00:16;;;;;;;12.73;6.90;;;0.00;99.70;;;;;;4951875;29;20440;-64
2021/01/27 06:02:44;;;;;;;13.27;6.53;;;0.00;99.70;;;;;;4951618;28;20451;-64
2021/01/27 06:05:15;;;;;;;14.83;7.33;;;0.00;99.70;;;;;;4951849;29;20942;-63
2021/01/27 06:07:43;;;;;;;12.97;6.80;;;-0.10;99.70;;;;;;4951395;29;20455;-65
2021/01/27 06:10:18;;;;;;;15.27;6.80;;;0.10;99.70;;;;;;4951714;29;20443;-64
2021/01/27 06:12:44;;;;;;;11.33;6.30;;;0.10;99.70;;;;;;4951498;28;20472;-64
2021/01/27 06:15:14;;;;;;;12.70;6.80;;;0.00;99.70;;;;;;4951760;29;20452;-65
2021/01/27 06:17:44;;;;;;;14.03;6.90;;;0.00;99.70;;;;;;4951296;29;20449;-63
2021/01/27 06:20:28;;;;;;;12.97;7.00;;;0.00;99.70;;;;;;4951641;29;20495;-65
2021/01/27 06:23:30;;;;;;;12.67;6.93;;;0.10;99.70;;;;;;4951632;28;21067;-64
2021/01/27 06:26:14;;;;;;;15.37;7.70;;;0.30;99.70;;;;;;4948020;28;20448;-64
2021/01/27 06:29:08;;;;;;;19.00;9.03;;;0.10;99.70;;;;;;4951290;29;20451;-65
2021/01/27 06:31:57;;;;;;;16.87;8.13;;;0.00;99.70;;;;;;4951584;28;20942;-65
2021/01/27 06:34:45;;;;;;;17.77;8.87;;;0.20;99.70;;;;;;4951662;28;20519;-63
2021/01/27 06:37:26;;;;;;;14.70;7.60;;;0.20;99.70;;;;;;4951182;29;20459;-65
2021/01/27 06:40:20;;;;;;;12.80;7.23;;;0.20;99.70;;;;;;4951470;29;20813;-64
2021/01/27 06:43:13;;;;;;;13.60;7.07;;;0.30;99.70;;;;;;4949024;28;21029;-64
2021/01/27 06:45:55;;;;;;;14.23;7.10;;;0.20;99.70;;;;;;4952287;28;20448;-64
2021/01/27 06:48:33;;;;;;;13.60;7.13;;;0.10;99.70;;;;;;4953698;29;20444;-64
2021/01/27 06:51:12;;;;;;;15.47;7.33;;;0.10;99.70;;;;;;4953605;29;20506;-63
2021/01/27 06:53:54;;;;;;;11.83;7.53;;;0.10;99.70;;;;;;4953998;28;20463;-63
2021/01/27 06:56:36;;;;;;;16.77;7.70;;;0.10;99.70;;;;;;4953829;29;20829;-63
2021/01/27 06:59:56;;;;;;;15.40;7.47;;;0.20;99.70;;;;;;4953756;28;20436;-63
2021/01/27 07:03:05;;;;;;;14.17;7.30;;;0.20;99.70;;;;;;4947779;29;20463;-63
2021/01/27 07:05:57;;;;;;;13.77;7.40;;;0.10;99.70;;;;;;4952651;29;20440;-65
2021/01/27 07:08:41;;;;;;;13.20;7.30;;;0.10;99.70;;;;;;4951038;28;20850;-62
2021/01/27 07:11:14;;;;;;;13.83;6.90;;;0.20;99.70;;;;;;4955441;28;20969;-62
2021/01/27 07:14:02;;;;;;;11.80;6.30;;;0.20;99.70;;;;;;4964822;28;20494;-63
2021/01/27 07:16:47;;;;;;;11.20;6.40;;;0.20;99.70;;;;;;4957944;28;21060;-64
2021/01/27 07:19:45;;;;;;;10.00;5.70;;;0.40;99.70;;;;;;4931667;29;20457;-64
2021/01/27 07:22:19;;;;;;;10.30;5.10;;;0.60;99.70;;;;;;4953278;29;20507;-65
2021/01/27 07:24:53;;;;;;;9.67;5.90;;;0.60;99.70;;;;;;4952149;28;20483;-63
2021/01/27 07:27:22;;;;;;;9.70;5.33;;;0.60;99.70;;;;;;4965937;28;20436;-63
2021/01/27 07:29:52;;;;;;;11.70;5.20;;;0.60;99.70;;;;;;4951691;29;20507;-65
2021/01/27 07:32:24;;;;;;;10.47;6.33;;;0.60;99.70;;;;;;4952632;28;20957;-64
2021/01/27 07:34:55;;;;;;;10.60;5.20;;;0.90;99.70;;;;;;4952209;29;20452;-63
2021/01/27 07:37:26;;;;;;;10.33;5.20;;;0.80;99.70;;;;;;4953464;29;20456;-62
2021/01/27 07:40:00;;;;;;;7.47;4.30;;;0.70;99.70;;;;;;4953392;29;20448;-65
2021/01/27 07:42:33;;;;;;;9.73;4.37;;;0.70;99.70;;;;;;4953116;29;20458;-63
2021/01/27 07:45:03;;;;;;;7.30;4.40;;;0.80;99.70;;;;;;4953439;29;20843;-63
2021/01/27 07:48:03;;;;;;;7.87;4.40;;;0.90;99.70;;;;;;4952757;29;20448;-63
2021/01/27 07:50:31;;;;;;;8.67;4.77;;;1.00;99.70;;;;;;4952314;28;20544;-64
2021/01/27 07:53:08;;;;;;;8.73;4.90;;;0.90;99.70;;;;;;4950229;28;20488;-64
2021/01/27 07:55:43;;;;;;;9.60;5.03;;;1.00;99.70;;;;;;4940891;29;20461;-62
2021/01/27 07:58:16;;;;;;;8.83;5.30;;;1.10;99.70;;;;;;4934799;28;20554;-62
2021/01/27 08:00:50;;;;;;;10.10;5.27;;;1.10;99.70;;;;;;4937511;29;20854;-65
2021/01/27 08:03:27;;;;;;;8.17;4.70;;;1.00;99.70;;;;;;4951896;28;20488;-65
2021/01/27 08:05:59;;;;;;;10.43;5.50;;;1.00;99.70;;;;;;4952343;28;20450;-64
2021/01/27 08:08:26;;;;;;;10.37;5.30;;;1.10;99.70;;;;;;4952201;28;20479;-64
2021/01/27 08:10:54;;;;;;;8.57;5.20;;;0.90;99.70;;;;;;4951320;28;20451;-64
2021/01/27 08:13:37;;;;;;;9.63;5.60;;;0.90;99.70;;;;;;4955933;28;20472;-63
2021/01/27 08:16:08;;;;;;;10.07;5.23;;;0.90;99.70;;;;;;4951024;29;20444;-64
2021/01/27 08:18:34;;;;;;;10.13;4.83;;;1.10;99.70;;;;;;4954132;28;20968;-62
2021/01/27 08:21:25;;;;;;;10.23;5.57;;;1.20;99.70;;;;;;4951159;29;20483;-65
2021/01/27 08:23:51;;;;;;;13.10;5.50;;;1.00;99.70;;;;;;4949688;28;20468;-65
2021/01/27 08:26:51;;;;;;;9.20;5.40;;;0.90;99.70;;;;;;4952507;29;20445;-64
2021/01/27 08:29:30;;;;;;;11.83;5.90;;;0.90;99.70;;;;;;4954549;29;20519;-63
2021/01/27 08:32:22;;;;;;;9.43;5.90;;;0.90;99.70;;;;;;4950026;29;20610;-65
2021/01/27 08:34:49;;;;;;;10.30;5.90;;;1.00;99.70;;;;;;4948857;28;20508;-64
2021/01/27 08:37:28;;;;;;;13.50;5.83;;;0.90;99.70;;;;;;4954892;29;20451;-63
2021/01/27 08:40:13;;;;;;;9.27;5.80;;;0.90;99.70;;;;;;4950406;28;20507;-64
2021/01/27 08:42:44;;;;;;;9.73;5.93;;;0.80;99.70;;;;;;4968126;28;20482;-64
2021/01/27 08:45:16;;;;;;;11.60;6.73;;;0.80;99.70;;;;;;4966569;28;20443;-64
2021/01/27 08:47:43;;;;;;;12.23;7.13;;;0.80;99.70;;;;;;4955398;28;20452;-62
2021/01/27 08:50:12;;;;;;;10.30;5.93;;;0.90;99.70;;;;;;4949507;28;20455;-64
2021/01/27 08:52:42;;;;;;;13.70;7.07;;;1.00;99.70;;;;;;4951884;28;20437;-64
2021/01/27 08:55:52;;;;;;;14.70;6.77;;;0.90;99.70;;;;;;4949348;29;20470;-64
2021/01/27 08:58:45;;;;;;;12.83;6.90;;;0.80;99.70;;;;;;4962438;28;20960;-65
2021/01/27 09:01:53;;;;;;;15.10;7.40;;;0.70;99.70;;;;;;4961132;28;20583;-65
2021/01/27 09:04:33;;;;;;;13.93;6.90;;;0.80;99.70;;;;;;4949829;28;20549;-63
2021/01/27 09:07:05;;;;;;;11.53;6.10;;;0.80;99.70;;;;;;4970120;28;20534;-66
2021/01/27 09:09:38;;;;;;;12.33;5.77;;;0.90;99.70;;;;;;4952428;28;20946;-63
2021/01/27 09:12:07;;;;;;;13.13;7.20;;;1.00;99.70;;;;;;4951492;29;20452;-63
2021/01/27 09:14:35;;;;;;;15.10;6.90;;;1.10;99.70;;;;;;4951684;29;20815;-65
2021/01/27 09:17:04;;;;;;;14.10;6.70;;;1.00;99.70;;;;;;4948394;28;20491;-64
2021/01/27 09:19:32;;;;;;;13.13;7.20;;;1.00;99.70;;;;;;4962247;28;20851;-64
2021/01/27 09:22:06;;;;;;;15.63;6.90;;;0.90;99.70;;;;;;4963715;28;20490;-64
2021/01/27 09:24:41;;;;;;;13.30;7.03;;;1.00;99.70;;;;;;4956746;28;20555;-63
2021/01/27 09:27:20;;;;;;;12.00;6.27;;;1.00;99.70;;;;;;4952358;28;20487;-64
2021/01/27 09:29:54;;;;;;;15.00;7.00;;;1.00;99.70;;;;;;4951035;29;20977;-64
2021/01/27 09:32:21;;;;;;;10.87;6.23;;;0.90;99.70;;;;;;4968739;28;20445;-64
2021/01/27 09:34:49;;;;;;;10.80;6.20;;;0.90;99.70;;;;;;4963974;28;20467;-63
2021/01/27 09:37:19;;;;;;;11.63;6.03;;;1.10;99.70;;;;;;4970525;28;20455;-64
2021/01/27 09:39:50;;;;;;;12.00;5.70;;;1.10;99.70;;;;;;4970421;28;20458;-65
2021/01/27 09:42:24;;;;;;;9.70;5.80;;;1.10;99.70;;;;;;4970687;28;20491;-65
2021/01/27 09:44:57;;;;;;;10.10;5.57;;;1.00;99.70;;;;;;4959334;28;20984;-63
2021/01/27 09:47:24;;;;;;;11.77;6.40;;;1.00;99.70;;;;;;4951206;28;20466;-64
2021/01/27 09:49:53;;;;;;;13.43;5.37;;;0.90;99.70;;;;;;4966761;28;20482;-63
2021/01/27 09:52:20;;;;;;;8.20;5.20;;;0.90;99.70;;;;;;4965327;28;20449;-64
2021/01/27 09:54:51;;;;;;;9.70;5.60;;;0.90;99.70;;;;;;4951600;29;20614;-64
2021/01/27 09:57:20;;;;;;;10.00;5.70;;;0.90;99.70;;;;;;4950256;29;20509;-65
2021/01/27 09:59:51;;;;;;;11.20;5.50;;;1.00;99.70;;;;;;4951298;29;20460;-64
2021/01/27 10:02:25;;;;;;;9.57;5.40;;;1.00;99.70;;;;;;4950266;29;20863;-63
2021/01/27 10:04:51;;;;;;;14.53;6.20;;;1.10;99.70;;;;;;4951168;28;20494;-64
2021/01/27 10:07:23;;;;;;;12.73;6.10;;;1.00;99.70;;;;;;4950335;29;20455;-65
2021/01/27 10:09:52;;;;;;;9.50;5.33;;;1.00;99.70;;;;;;4950804;29;20455;-64
2021/01/27 10:12:24;;;;;;;10.03;5.53;;;1.20;99.70;;;;;;4931798;29;20453;-64
2021/01/27 10:14:57;;;;;;;10.70;5.23;;;1.10;99.70;;;;;;4949373;29;20507;-64
2021/01/27 10:17:29;;;;;;;7.80;4.63;;;1.10;99.70;;;;;;4951040;29;20531;-63
2021/01/27 10:20:20;;;;;;;8.90;4.67;;;1.10;99.70;;;;;;4951707;28;20448;-64
2021/01/27 10:22:55;;;;;;;10.60;5.47;;;0.90;99.70;;;;;;4955044;28;20535;-64
2021/01/27 10:25:34;;;;;;;11.93;6.53;;;0.90;99.70;;;;;;4954780;28;20444;-64
2021/01/27 10:28:18;;;;;;;15.27;6.50;;;0.90;99.70;;;;;;4954551;29;20458;-63
2021/01/27 10:30:48;;;;;;;11.40;6.00;;;1.00;99.70;;;;;;4955684;28;20456;-65
2021/01/27 10:33:48;;;;;;;13.97;6.80;;;1.00;99.70;;;;;;4973915;28;20525;-64
2021/01/27 10:36:42;;;;;;;13.73;6.00;;;1.00;99.70;;;;;;4946882;29;20480;-65
2021/01/27 10:39:14;;;;;;;13.30;6.57;;;0.90;99.70;;;;;;4962324;28;20659;-65
2021/01/27 10:41:40;;;;;;;12.90;6.53;;;1.00;99.70;;;;;;4953747;29;20480;-64
2021/01/27 10:44:29;;;;;;;13.50;6.17;;;1.00;99.70;;;;;;4954574;28;20472;-64
2021/01/27 10:46:58;;;;;;;12.83;6.17;;;1.10;99.70;;;;;;4953859;29;20492;-64
2021/01/27 10:49:26;;;;;;;18.67;8.47;;;1.00;99.70;;;;;;4948934;28;20477;-65
2021/01/27 10:51:52;;;;;;;13.73;6.33;;;1.10;99.70;;;;;;4962936;28;20950;-62
2021/01/27 10:54:23;;;;;;;14.07;7.00;;;1.20;99.70;;;;;;4953776;28;20468;-65
2021/01/27 10:56:54;;;;;;;11.13;6.20;;;1.20;99.70;;;;;;4954542;29;20444;-65
2021/01/27 10:59:21;;;;;;;9.27;5.50;;;1.30;99.70;;;;;;4953922;29;20480;-63
2021/01/27 11:01:48;;;;;;;12.97;5.90;;;1.30;99.70;;;;;;4954145;29;20483;-64
2021/01/27 11:04:14;;;;;;;11.23;5.80;;;1.40;99.70;;;;;;4953837;28;20476;-64
2021/01/27 11:06:42;;;;;;;12.37;5.73;;;1.50;99.70;;;;;;4965515;28;20462;-63
2021/01/27 11:09:10;;;;;;;13.60;6.77;;;1.70;99.70;;;;;;4953972;28;20448;-64
2021/01/27 11:11:37;;;;;;;14.13;5.93;;;1.50;99.70;;;;;;4953690;29;20527;-64
2021/01/27 11:14:03;;;;;;;16.03;6.23;;;1.40;99.70;;;;;;4954129;28;20468;-64
2021/01/27 11:16:29;;;;;;;10.30;5.30;;;1.40;99.70;;;;;;4957340;28;20460;-64
2021/01/27 11:18:55;;;;;;;10.20;5.13;;;1.50;99.70;;;;;;4953461;29;20459;-65
2021/01/27 11:21:22;;;;;;;10.60;5.73;;;1.30;99.70;;;;;;4956500;28;20488;-65
2021/01/27 11:23:49;;;;;;;8.40;5.17;;;1.40;99.70;;;;;;4952082;28;20476;-65
2021/01/27 11:26:19;;;;;;;9.37;5.93;;;1.50;99.70;;;;;;4953152;29;20447;-63
2021/01/27 11:28:46;;;;;;;10.53;6.10;;;1.50;99.70;;;;;;4952631;28;20597;-65
2021/01/27 11:31:13;;;;;;;9.63;5.93;;;1.50;99.70;;;;;;4954347;28;20459;-64
2021/01/27 11:33:39;;;;;;;11.97;5.90;;;1.70;99.70;;;;;;4967479;28;20492;-64
2021/01/27 11:36:06;;;;;;;12.40;6.83;;;1.70;99.70;;;;;;4955562;28;20486;-64
2021/01/27 11:38:32;;;;;;;15.23;7.33;;;1.60;99.70;;;;;;4969747;28;20766;-65
2021/01/27 11:40:59;;;;;;;12.80;7.37;;;1.60;99.70;;;;;;4953167;29;20480;-66
2021/01/27 11:43:25;;;;;;;10.90;5.73;;;1.60;99.70;;;;;;4952921;28;20473;-65
2021/01/27 11:45:51;;;;;;;11.30;6.47;;;1.60;99.70;;;;;;4952392;29;20457;-62
2021/01/27 11:48:18;;;;;;;11.30;6.40;;;1.50;99.70;;;;;;4952707;29;21029;-64
2021/01/27 11:50:44;;;;;;;16.83;7.60;;;1.50;99.70;;;;;;4939557;28;20446;-64
2021/01/27 11:53:10;;;;;;;13.60;7.00;;;1.60;99.70;;;;;;4975893;28;20454;-63
2021/01/27 11:55:37;;;;;;;16.37;7.60;;;1.60;99.70;;;;;;4972161;28;20828;-63
2021/01/27 11:58:04;;;;;;;13.07;7.13;;;1.70;99.70;;;;;;4972000;28;20542;-64
2021/01/27 12:00:30;;;;;;;23.03;12.60;;;1.70;99.70;;;;;;4971241;28;20462;-64
2021/01/27 12:02:57;;;;;;;16.20;6.77;;;1.80;99.70;;;;;;4971949;28;20490;-65
2021/01/27 12:05:24;;;;;;;14.23;7.30;;;1.90;99.70;;;;;;4970755;28;20485;-65
2021/01/27 12:07:50;;;;;;;12.97;7.60;;;1.70;99.70;;;;;;4971424;28;20451;-64
2021/01/27 12:10:16;;;;;;;13.07;6.47;;;1.80;99.70;;;;;;4957059;28;20455;-64
2021/01/27 12:12:42;;;;;;;10.03;5.70;;;1.70;99.70;;;;;;4953088;29;20449;-64
2021/01/27 12:15:10;;;;;;;11.93;6.30;;;1.70;99.70;;;;;;4966292;28;20451;-64
2021/01/27 12:17:37;;;;;;;9.00;5.87;;;1.70;99.70;;;;;;4972011;28;20455;-66
2021/01/27 12:20:04;;;;;;;8.67;5.10;;;1.90;99.70;;;;;;4964499;28;20455;-65
2021/01/27 12:22:30;;;;;;;6.80;4.30;;;1.60;99.70;;;;;;4963162;28;20495;-64
2021/01/27 12:24:56;;;;;;;11.37;5.53;;;1.50;99.70;;;;;;4951772;29;21035;-66
2021/01/27 12:27:22;;;;;;;7.90;5.03;;;1.50;99.70;;;;;;4952169;29;20448;-64
2021/01/27 12:29:48;;;;;;;15.00;5.70;;;1.60;99.70;;;;;;4952659;29;20503;-65
2021/01/27 12:32:16;;;;;;;8.53;5.63;;;1.50;99.70;;;;;;4955821;28;20451;-65
2021/01/27 12:34:42;;;;;;;9.47;5.60;;;1.50;99.70;;;;;;4962105;28;20993;-65
2021/01/27 12:37:08;;;;;;;7.40;4.70;;;1.60;99.70;;;;;;4970136;28;20478;-64
2021/01/27 12:39:34;;;;;;;10.63;5.23;;;1.60;99.70;;;;;;4950786;28;20455;-65
2021/01/27 12:42:01;;;;;;;8.47;5.53;;;1.90;99.70;;;;;;4971039;28;20876;-64
2021/01/27 12:44:27;;;;;;;9.07;5.40;;;1.70;99.70;;;;;;4963271;28;20833;-64
2021/01/27 12:46:54;;;;;;;9.37;5.90;;;1.70;99.70;;;;;;4951931;29;20507;-64
2021/01/27 12:49:21;;;;;;;11.37;6.00;;;1.90;99.70;;;;;;4957097;28;20510;-66
2021/01/27 12:51:48;;;;;;;9.80;5.60;;;1.80;99.70;;;;;;4971834;28;20620;-65
2021/01/27 12:54:14;;;;;;;9.83;5.70;;;1.80;99.70;;;;;;4969452;28;20845;-66
2021/01/27 12:56:40;;;;;;;9.40;5.43;;;1.90;99.70;;;;;;4971809;28;20455;-66
2021/01/27 12:59:06;;;;;;;9.70;5.00;;;2.00;99.70;;;;;;4965697;28;20448;-66
2021/01/27 13:01:32;;;;;;;18.60;10.50;;;2.00;99.70;;;;;;4951547;29;20487;-65
2021/01/27 13:03:59;;;;;;;10.70;5.27;;;2.00;99.70;;;;;;4954567;28;20500;-65
2021/01/27 13:06:26;;;;;;;11.10;5.40;;;2.10;99.70;;;;;;4950849;28;20471;-65
2021/01/27 13:08:52;;;;;;;15.07;5.67;;;2.20;99.70;;;;;;4959007;28;20455;-64
2021/01/27 13:11:18;;;;;;;8.80;5.40;;;2.20;99.70;;;;;;4953114;28;20452;-66